Time;durP1;ratioP1;P1;durP2;ratioP2;P2;SDS_P1;SDS_P2;PMS_P1;PMS_P2;Temp;Humidity;BMP_temperature;BMP_pressure;BME280_temperature;BME280_humidity;BME280_pressure;Samples;Min_cycle;Max_cycle;Signal;HPM_P1;HPM_P2
2023/01/15 00:01:27;;;;;;;1.95;0.90;;;21.40;53.60;;;;;;5020333;28;20025;-65
2023/01/15 00:03:54;;;;;;;1.70;0.80;;;21.40;53.50;;;;;;5021431;28;20097;-66
2023/01/15 00:06:21;;;;;;;1.95;0.80;;;21.40;53.50;;;;;;5018552;28;20389;-65
2023/01/15 00:08:47;;;;;;;1.60;0.80;;;21.40;53.60;;;;;;5020828;28;20037;-66
2023/01/15 00:11:13;;;;;;;1.75;0.80;;;21.30;53.60;;;;;;5022169;28;20037;-66
2023/01/15 00:13:39;;;;;;;2.33;1.10;;;21.30;53.60;;;;;;5023262;28;20099;-66
2023/01/15 00:16:09;;;;;;;1.58;0.82;;;21.30;53.60;;;;;;5024045;28;20457;-66
2023/01/15 00:18:35;;;;;;;2.70;1.23;;;21.30;53.60;;;;;;5022065;28;20018;-65
2023/01/15 00:21:02;;;;;;;1.85;0.80;;;21.30;53.60;;;;;;5022501;28;20366;-66
2023/01/15 00:28:59;;;;;;;1.20;0.70;;;21.20;53.60;;;;;;5019675;28;20115;-66
2023/01/15 00:31:24;;;;;;;1.63;0.80;;;21.20;53.60;;;;;;5017392;28;20061;-66
2023/01/15 00:33:50;;;;;;;1.55;0.90;;;21.20;53.70;;;;;;5020573;28;20488;-66
2023/01/15 00:36:16;;;;;;;1.23;0.60;;;21.20;53.80;;;;;;5020209;28;20034;-66
2023/01/15 00:38:42;;;;;;;2.10;0.80;;;21.10;53.70;;;;;;5018035;28;20453;-66
2023/01/15 00:41:07;;;;;;;1.70;0.80;;;21.10;53.80;;;;;;5029136;28;20036;-66
2023/01/15 00:43:33;;;;;;;1.42;0.73;;;21.10;53.80;;;;;;5020331;28;20417;-66
2023/01/15 00:45:58;;;;;;;1.38;0.80;;;21.10;53.80;;;;;;5023859;28;20029;-66
2023/01/15 00:48:24;;;;;;;0.95;0.52;;;21.10;53.90;;;;;;5021728;28;20069;-66
2023/01/15 00:50:49;;;;;;;1.05;0.68;;;21.00;53.90;;;;;;5018608;28;20080;-66
2023/01/15 00:53:15;;;;;;;1.75;0.80;;;21.00;53.90;;;;;;5018081;28;20505;-66
2023/01/15 00:55:41;;;;;;;1.70;0.73;;;21.00;53.90;;;;;;5020414;28;20038;-65
2023/01/15 00:58:06;;;;;;;1.23;0.70;;;21.00;53.90;;;;;;5025824;28;20095;-66
2023/01/15 01:00:32;;;;;;;1.58;0.82;;;21.00;54.00;;;;;;5022055;28;20026;-66
2023/01/15 01:02:58;;;;;;;1.20;0.73;;;21.00;54.00;;;;;;5021552;28;20056;-66
2023/01/15 01:05:23;;;;;;;1.48;0.70;;;21.00;54.00;;;;;;5022265;28;20360;-66
2023/01/15 01:07:49;;;;;;;1.13;0.70;;;20.90;54.00;;;;;;5023145;28;20552;-66
2023/01/15 01:10:16;;;;;;;1.98;0.70;;;20.90;53.90;;;;;;5020828;28;20113;-66
2023/01/15 01:12:41;;;;;;;1.55;0.75;;;20.90;53.90;;;;;;5021818;28;20045;-65
2023/01/15 01:15:08;;;;;;;2.35;0.68;;;20.90;54.00;;;;;;5021567;28;20505;-66
2023/01/15 01:17:37;;;;;;;0.98;0.70;;;20.90;54.00;;;;;;5021046;28;20030;-66
2023/01/15 01:20:03;;;;;;;1.38;0.65;;;20.90;54.10;;;;;;5016492;28;20439;-66
2023/01/15 01:22:29;;;;;;;1.10;0.70;;;20.80;54.00;;;;;;5023529;28;20477;-65
2023/01/15 01:24:55;;;;;;;2.25;0.77;;;20.80;54.00;;;;;;5020148;28;20037;-65
2023/01/15 01:27:20;;;;;;;1.73;0.70;;;20.80;54.10;;;;;;5023585;28;20347;-66
2023/01/15 01:29:46;;;;;;;1.40;0.60;;;20.80;54.10;;;;;;5020048;28;20032;-65
2023/01/15 01:32:12;;;;;;;1.42;0.95;;;20.80;54.10;;;;;;5021315;28;20393;-65
2023/01/15 01:34:38;;;;;;;1.35;0.60;;;20.80;54.10;;;;;;5019257;28;20041;-65
2023/01/15 01:37:03;;;;;;;1.55;0.75;;;20.80;54.10;;;;;;5017225;28;20037;-65
2023/01/15 01:39:29;;;;;;;1.88;0.68;;;20.70;54.00;;;;;;5017874;28;20033;-66
2023/01/15 01:41:54;;;;;;;0.98;0.50;;;20.70;54.10;;;;;;5022132;28;20037;-65
2023/01/15 01:44:32;;;;;;;1.33;0.63;;;20.70;54.10;;;;;;5027823;28;20477;-65
2023/01/15 01:47:06;;;;;;;1.45;0.60;;;20.70;54.10;;;;;;5019579;28;20029;-66
2023/01/15 01:49:33;;;;;;;1.00;0.60;;;20.70;54.10;;;;;;5021165;28;20037;-66
2023/01/15 01:52:07;;;;;;;1.40;0.70;;;20.70;54.10;;;;;;5017406;28;20346;-65
2023/01/15 01:54:34;;;;;;;0.50;0.50;;;20.70;54.10;;;;;;5018284;28;20444;-65
2023/01/15 01:57:01;;;;;;;1.67;0.70;;;20.70;54.10;;;;;;5028053;28;20461;-65
2023/01/15 01:59:26;;;;;;;1.58;0.70;;;20.60;54.10;;;;;;5020786;28;20046;-65
2023/01/15 02:01:53;;;;;;;1.30;0.60;;;20.60;54.00;;;;;;5020109;28;20057;-65
2023/01/15 02:04:21;;;;;;;1.48;0.70;;;20.60;54.00;;;;;;5012388;28;20025;-65
2023/01/15 02:06:47;;;;;;;1.30;0.68;;;20.60;54.00;;;;;;5016304;28;20397;-65
2023/01/15 02:09:12;;;;;;;1.58;0.80;;;20.60;54.00;;;;;;5018306;28;20037;-66
2023/01/15 02:11:38;;;;;;;0.75;0.60;;;20.60;53.90;;;;;;5017801;28;20495;-66
2023/01/15 02:14:29;;;;;;;1.10;0.70;;;20.60;54.00;;;;;;5017443;28;20030;-66
2023/01/15 02:17:19;;;;;;;1.55;0.80;;;20.60;54.00;;;;;;5019416;28;20125;-64
2023/01/15 02:20:04;;;;;;;1.27;0.70;;;20.60;54.00;;;;;;5020974;28;20030;-65
2023/01/15 02:22:49;;;;;;;1.25;0.60;;;20.60;54.00;;;;;;5020785;28;20026;-66
2023/01/15 02:25:47;;;;;;;1.13;0.60;;;20.50;54.00;;;;;;5021149;28;20338;-65
2023/01/15 02:28:29;;;;;;;1.27;0.70;;;20.50;54.00;;;;;;5020827;28;20343;-66
2023/01/15 02:31:16;;;;;;;0.65;0.40;;;20.50;54.00;;;;;;5020148;28;20017;-65
2023/01/15 02:33:50;;;;;;;1.50;0.70;;;20.50;54.00;;;;;;5016638;28;20385;-65
2023/01/15 02:36:20;;;;;;;0.90;0.60;;;20.50;53.90;;;;;;5020369;28;20464;-64
2023/01/15 02:38:49;;;;;;;1.52;0.70;;;20.40;53.90;;;;;;5021610;28;20075;-65
2023/01/15 02:41:17;;;;;;;0.95;0.60;;;20.40;53.80;;;;;;5017420;28;20501;-66
2023/01/15 02:43:48;;;;;;;1.15;0.50;;;20.40;53.90;;;;;;5020540;28;20096;-66
2023/01/15 02:46:15;;;;;;;1.05;0.60;;;20.40;53.80;;;;;;5020971;28;20033;-65
2023/01/15 02:48:45;;;;;;;0.82;0.40;;;20.40;53.80;;;;;;5020109;28;20033;-65
2023/01/15 02:51:18;;;;;;;0.77;0.50;;;20.40;53.80;;;;;;5019944;28;20029;-64
2023/01/15 02:53:48;;;;;;;0.75;0.50;;;20.40;53.80;;;;;;5020388;28;20447;-65
2023/01/15 02:56:19;;;;;;;;;;;20.40;53.80;;;;;;5022263;28;20116;-65
2023/01/15 02:58:48;;;;;;;0.73;0.60;;;20.40;53.80;;;;;;5026531;28;20028;-65
2023/01/15 03:01:18;;;;;;;0.95;0.50;;;20.40;53.80;;;;;;5017503;28;20024;-66
2023/01/15 03:04:01;;;;;;;1.38;0.60;;;20.40;53.70;;;;;;5019797;28;20029;-65
2023/01/15 03:06:50;;;;;;;1.15;0.52;;;20.40;53.70;;;;;;5014750;28;20113;-65
2023/01/15 03:09:15;;;;;;;1.10;0.50;;;20.40;53.70;;;;;;5023112;28;20081;-65
2023/01/15 03:11:54;;;;;;;0.45;0.40;;;20.30;53.70;;;;;;5020409;28;20073;-65
2023/01/15 03:14:26;;;;;;;1.10;0.50;;;20.30;53.70;;;;;;5016252;28;20493;-65
2023/01/15 03:16:57;;;;;;;0.82;0.50;;;20.30;53.70;;;;;;5017131;28;20312;-66
2023/01/15 03:19:28;;;;;;;0.65;0.50;;;20.30;53.80;;;;;;5018856;28;20338;-65
2023/01/15 03:22:12;;;;;;;0.65;0.50;;;20.30;53.80;;;;;;5016800;28;20044;-65
2023/01/15 03:24:49;;;;;;;1.17;0.60;;;20.30;53.80;;;;;;5017599;28;20029;-65
2023/01/15 03:27:15;;;;;;;0.55;0.40;;;20.30;53.80;;;;;;5024736;28;20485;-65
2023/01/15 03:29:46;;;;;;;0.82;0.57;;;20.30;53.80;;;;;;5018722;28;20026;-65
2023/01/15 03:32:13;;;;;;;0.90;0.55;;;20.20;53.80;;;;;;5032360;28;20077;-66
2023/01/15 03:34:46;;;;;;;0.50;0.50;;;20.20;53.70;;;;;;5020130;28;20030;-66
2023/01/15 03:37:12;;;;;;;1.08;0.52;;;20.20;53.80;;;;;;5016451;28;20152;-66
2023/01/15 03:39:39;;;;;;;0.63;0.40;;;20.20;53.80;;;;;;5021849;28;20436;-66
2023/01/15 03:42:13;;;;;;;0.40;0.40;;;20.20;53.80;;;;;;5024283;28;20102;-65
2023/01/15 03:45:17;;;;;;;1.00;0.60;;;20.20;53.80;;;;;;5023794;28;20030;-66
2023/01/15 03:48:10;;;;;;;0.75;0.60;;;20.20;53.80;;;;;;5024568;28;20041;-66
2023/01/15 03:50:42;;;;;;;1.05;0.50;;;20.20;53.80;;;;;;5022516;28;20053;-66
2023/01/15 03:53:30;;;;;;;0.43;0.40;;;20.20;53.80;;;;;;5020033;28;20117;-65
2023/01/15 03:56:31;;;;;;;1.00;0.50;;;20.20;53.80;;;;;;5039889;28;20037;-66
2023/01/15 03:59:21;;;;;;;1.10;0.60;;;20.10;53.80;;;;;;5027845;28;20512;-65
2023/01/15 04:01:47;;;;;;;0.95;0.70;;;20.20;53.80;;;;;;5021414;28;20400;-65
2023/01/15 04:04:14;;;;;;;0.60;0.50;;;20.10;53.80;;;;;;5024561;28;20053;-66
2023/01/15 04:06:42;;;;;;;1.30;0.60;;;20.20;53.80;;;;;;5022675;28;20437;-66
2023/01/15 04:09:10;;;;;;;1.00;0.50;;;20.10;53.80;;;;;;5018671;28;20588;-65
2023/01/15 04:11:36;;;;;;;0.73;0.40;;;20.10;53.80;;;;;;5021028;28;20021;-66
2023/01/15 04:14:02;;;;;;;0.75;0.55;;;20.10;53.80;;;;;;5020966;28;20111;-65
2023/01/15 04:16:30;;;;;;;0.52;0.40;;;20.10;53.80;;;;;;5024859;28;20038;-65
2023/01/15 04:18:56;;;;;;;0.50;0.50;;;20.10;53.80;;;;;;5023058;28;20018;-65
2023/01/15 04:21:22;;;;;;;0.73;0.40;;;20.10;53.80;;;;;;5021667;28;20439;-67
2023/01/15 04:23:48;;;;;;;0.50;0.40;;;20.10;53.90;;;;;;5017942;28;20033;-65
2023/01/15 04:26:13;;;;;;;0.63;0.40;;;20.10;53.80;;;;;;5022465;28;20464;-65
2023/01/15 04:28:40;;;;;;;0.50;0.40;;;20.10;53.80;;;;;;5020566;28;20056;-65
2023/01/15 04:31:05;;;;;;;0.40;0.40;;;20.10;53.80;;;;;;5018301;28;20041;-65
2023/01/15 04:33:31;;;;;;;0.90;0.50;;;20.10;53.90;;;;;;5021489;28;20041;-65
2023/01/15 04:36:03;;;;;;;0.90;0.57;;;20.10;53.80;;;;;;5022094;28;20084;-65
2023/01/15 04:38:29;;;;;;;1.08;0.50;;;20.00;53.70;;;;;;5019405;28;20121;-67
2023/01/15 04:46:27;;;;;;;1.42;0.50;;;20.00;53.70;;;;;;5023883;28;20447;-66
2023/01/15 04:48:52;;;;;;;1.70;0.60;;;20.00;53.70;;;;;;5022042;28;20030;-66
2023/01/15 04:51:18;;;;;;;0.50;0.50;;;20.00;53.60;;;;;;5023154;28;20507;-65
2023/01/15 04:53:43;;;;;;;0.70;0.50;;;20.00;53.70;;;;;;5023764;28;20088;-65
2023/01/15 04:56:09;;;;;;;0.70;0.50;;;20.00;53.60;;;;;;5023054;28;20049;-66
2023/01/15 04:58:35;;;;;;;0.65;0.45;;;20.00;53.60;;;;;;5021186;28;20053;-66
2023/01/15 05:01:01;;;;;;;0.60;0.50;;;20.00;53.60;;;;;;5021263;28;20076;-65
2023/01/15 05:03:30;;;;;;;1.13;0.70;;;20.00;53.60;;;;;;5022032;28;20063;-65
2023/01/15 05:06:00;;;;;;;;;;;20.00;53.60;;;;;;5020313;28;20028;-65
2023/01/15 05:08:26;;;;;;;;;;;19.90;53.50;;;;;;5021047;28;19905;-65
2023/01/15 05:10:51;;;;;;;0.45;0.32;;;20.00;53.60;;;;;;5021349;28;19952;-65
2023/01/15 05:13:17;;;;;;;0.82;0.43;;;20.00;53.50;;;;;;5017503;28;20484;-66
2023/01/15 05:15:45;;;;;;;0.52;0.38;;;19.90;53.50;;;;;;5019741;28;20034;-65
2023/01/15 05:18:13;;;;;;;0.57;0.50;;;19.90;53.50;;;;;;5017599;28;20546;-66
2023/01/15 05:20:40;;;;;;;0.50;0.40;;;19.90;53.40;;;;;;5019115;28;20129;-65
2023/01/15 05:23:06;;;;;;;0.68;0.47;;;19.90;53.40;;;;;;5016158;28;20034;-66
2023/01/15 05:25:32;;;;;;;0.57;0.43;;;19.90;53.40;;;;;;5018252;28;20559;-65
2023/01/15 05:27:57;;;;;;;0.60;0.40;;;19.90;53.30;;;;;;5021443;28;20037;-66
2023/01/15 05:30:23;;;;;;;0.43;0.38;;;19.90;53.30;;;;;;5018887;28;20026;-66
2023/01/15 05:32:49;;;;;;;0.70;0.40;;;19.90;53.30;;;;;;5021777;28;20030;-65
2023/01/15 05:35:14;;;;;;;0.40;0.30;;;19.90;53.30;;;;;;5023250;28;20093;-65
2023/01/15 05:37:40;;;;;;;0.40;0.40;;;19.90;53.30;;;;;;5022482;28;20036;-66
2023/01/15 05:40:06;;;;;;;0.60;0.43;;;19.90;53.30;;;;;;5019718;28;20033;-65
2023/01/15 05:42:32;;;;;;;0.40;0.35;;;19.90;53.30;;;;;;5027915;28;20018;-65
2023/01/15 05:44:57;;;;;;;0.40;0.40;;;19.90;53.30;;;;;;5019587;28;20362;-66
2023/01/15 05:47:23;;;;;;;0.70;0.63;;;19.90;53.30;;;;;;5022336;28;20109;-65
2023/01/15 05:49:49;;;;;;;0.45;0.45;;;19.90;53.30;;;;;;5014380;28;20032;-65
2023/01/15 05:52:15;;;;;;;0.55;0.43;;;19.80;53.20;;;;;;5018165;28;20466;-66
2023/01/15 05:54:40;;;;;;;1.00;0.50;;;19.80;53.20;;;;;;5022598;28;20109;-65
2023/01/15 05:57:09;;;;;;;0.47;0.40;;;19.90;53.30;;;;;;5019256;28;20390;-65
2023/01/15 05:59:35;;;;;;;0.52;0.50;;;19.90;53.30;;;;;;5017988;28;20033;-65
2023/01/15 06:02:00;;;;;;;0.43;0.40;;;19.80;53.30;;;;;;5020523;28;20603;-66
2023/01/15 06:04:26;;;;;;;0.40;0.40;;;19.80;53.30;;;;;;5020171;28;20077;-66
2023/01/15 06:06:53;;;;;;;0.70;0.50;;;19.80;53.30;;;;;;5018402;28;20033;-64
2023/01/15 06:09:19;;;;;;;0.85;0.40;;;19.80;53.30;;;;;;5022978;28;20033;-64
2023/01/15 06:11:46;;;;;;;0.73;0.60;;;19.80;53.30;;;;;;5021709;28;20087;-65
2023/01/15 06:14:11;;;;;;;0.55;0.40;;;19.80;53.30;;;;;;5021072;28;20385;-65
2023/01/15 06:16:38;;;;;;;0.30;0.30;;;19.80;53.30;;;;;;5018881;28;20033;-64
2023/01/15 06:19:05;;;;;;;0.38;0.38;;;19.80;53.30;;;;;;5015639;28;20030;-65
2023/01/15 06:21:32;;;;;;;0.40;0.40;;;19.80;53.40;;;;;;5020268;28;20029;-65
2023/01/15 06:23:58;;;;;;;0.50;0.40;;;19.80;53.40;;;;;;5024444;28;20083;-65
2023/01/15 06:26:24;;;;;;;0.60;0.40;;;19.80;53.40;;;;;;5020606;28;20484;-66
2023/01/15 06:28:50;;;;;;;0.30;0.30;;;19.80;53.40;;;;;;5021341;28;20485;-64
2023/01/15 06:31:18;;;;;;;0.60;0.50;;;19.80;53.90;;;;;;5018026;28;20057;-65
2023/01/15 06:33:44;;;;;;;0.50;0.47;;;19.80;53.40;;;;;;5017923;28;20045;-65
2023/01/15 06:36:16;;;;;;;0.43;0.43;;;19.70;53.30;;;;;;5017295;28;20393;-64
2023/01/15 06:38:42;;;;;;;0.40;0.28;;;19.80;53.40;;;;;;5023052;28;20030;-64
2023/01/15 06:49:28;;;;;;;0.70;0.40;;;19.70;53.30;;;;;;5020575;28;20099;-64
2023/01/15 06:51:54;;;;;;;0.57;0.40;;;19.70;53.30;;;;;;5028224;28;20029;-65
2023/01/15 06:54:19;;;;;;;0.75;0.40;;;19.70;53.30;;;;;;5017553;28;20029;-64
2023/01/15 06:56:45;;;;;;;0.40;0.40;;;19.70;53.30;;;;;;5020731;28;20044;-65
2023/01/15 06:59:11;;;;;;;0.30;0.30;;;19.70;53.40;;;;;;5025326;28;20025;-66
2023/01/15 07:01:36;;;;;;;0.30;0.30;;;19.70;53.40;;;;;;5013202;28;20028;-65
2023/01/15 07:04:02;;;;;;;0.60;0.40;;;19.70;53.40;;;;;;5017967;28;20429;-65
2023/01/15 07:06:28;;;;;;;0.30;0.30;;;19.70;53.40;;;;;;5013405;28;20477;-64
2023/01/15 07:08:54;;;;;;;0.68;0.40;;;19.70;53.40;;;;;;5019542;28;20072;-66
2023/01/15 07:11:19;;;;;;;0.52;0.35;;;19.70;53.40;;;;;;5018315;28;20025;-65
2023/01/15 07:13:45;;;;;;;0.43;0.40;;;19.70;53.40;;;;;;5029916;28;20103;-66
2023/01/15 07:16:25;;;;;;;0.40;0.40;;;19.70;53.40;;;;;;5021575;28;20502;-65
2023/01/15 07:18:53;;;;;;;0.38;0.38;;;19.70;53.40;;;;;;5021646;28;20129;-65
2023/01/15 07:21:18;;;;;;;0.45;0.40;;;19.70;53.50;;;;;;5022235;28;20022;-65
2023/01/15 07:23:44;;;;;;;0.40;0.35;;;19.70;53.50;;;;;;5023863;28;20048;-66
2023/01/15 07:26:09;;;;;;;0.40;0.40;;;19.70;53.50;;;;;;5023954;28;20061;-66
2023/01/15 07:28:35;;;;;;;0.82;0.40;;;19.70;53.60;;;;;;5022838;28;20548;-65
2023/01/15 07:31:01;;;;;;;0.68;0.40;;;19.70;53.70;;;;;;5029949;28;20026;-65
2023/01/15 07:33:26;;;;;;;1.23;0.60;;;19.70;53.80;;;;;;5021179;28;20037;-65
2023/01/15 07:35:52;;;;;;;0.90;0.43;;;19.60;53.80;;;;;;5023332;28;20109;-64
2023/01/15 07:38:17;;;;;;;0.60;0.40;;;19.70;53.80;;;;;;5020519;28;20053;-64
2023/01/15 07:40:43;;;;;;;0.80;0.47;;;19.70;53.80;;;;;;5022452;28;20022;-65
2023/01/15 07:51:22;;;;;;;0.38;0.30;;;19.60;53.80;;;;;;5022185;28;20104;-65
2023/01/15 07:53:48;;;;;;;0.68;0.50;;;19.60;54.40;;;;;;5020516;28;20022;-65
2023/01/15 07:56:14;;;;;;;1.35;0.70;;;19.60;54.40;;;;;;5022404;28;20056;-65
2023/01/15 07:58:39;;;;;;;0.95;0.57;;;19.60;54.00;;;;;;5022515;28;20026;-65
2023/01/15 08:01:05;;;;;;;1.60;0.65;;;19.60;54.00;;;;;;5021875;28;20032;-65
2023/01/15 08:03:31;;;;;;;0.73;0.52;;;19.60;54.00;;;;;;5019773;28;20030;-66
2023/01/15 08:05:56;;;;;;;1.50;0.70;;;19.60;54.10;;;;;;5021747;28;20168;-65
2023/01/15 08:08:22;;;;;;;1.30;0.80;;;19.60;54.10;;;;;;5021011;28;20404;-65
2023/01/15 08:16:16;;;;;;;1.90;0.90;;;19.60;54.20;;;;;;5020251;28;20487;-65
2023/01/15 08:18:44;;;;;;;1.15;0.63;;;19.60;54.40;;;;;;5021496;28;20113;-65
2023/01/15 08:21:14;;;;;;;1.40;0.70;;;19.60;54.40;;;;;;5023433;28;20500;-65
2023/01/15 08:23:42;;;;;;;1.95;0.90;;;19.60;54.50;;;;;;5019457;28;20032;-65
2023/01/15 08:26:07;;;;;;;1.90;0.90;;;19.60;54.50;;;;;;5019867;28;20061;-65
2023/01/15 08:28:33;;;;;;;1.42;0.70;;;19.60;54.60;;;;;;5024633;28;20072;-65
2023/01/15 08:30:58;;;;;;;2.38;0.90;;;19.60;54.60;;;;;;5020616;28;20120;-65
2023/01/15 08:33:24;;;;;;;2.13;1.00;;;19.60;54.70;;;;;;5020682;28;20029;-65
2023/01/15 08:35:49;;;;;;;2.55;0.90;;;19.60;54.70;;;;;;5020763;28;20068;-65
2023/01/15 08:38:15;;;;;;;2.33;1.10;;;19.60;54.70;;;;;;5038638;28;20405;-66
2023/01/15 08:40:59;;;;;;;3.13;1.10;;;19.60;54.80;;;;;;5022612;28;20389;-66
2023/01/15 08:43:32;;;;;;;2.45;1.02;;;19.60;54.80;;;;;;5022550;28;20065;-65
2023/01/15 08:45:59;;;;;;;3.13;1.13;;;19.60;54.80;;;;;;5022752;28;20087;-65
2023/01/15 08:48:26;;;;;;;1.80;0.90;;;19.60;54.80;;;;;;5036878;28;20029;-65
2023/01/15 08:50:51;;;;;;;4.18;1.10;;;19.60;54.90;;;;;;5022197;28;20056;-65
2023/01/15 08:53:20;;;;;;;3.08;1.10;;;19.60;54.90;;;;;;5021010;28;20057;-65
2023/01/15 08:55:47;;;;;;;4.10;1.00;;;19.60;54.90;;;;;;5020566;28;20507;-65
2023/01/15 08:58:14;;;;;;;3.70;1.08;;;19.60;55.00;;;;;;5023042;28;20926;-66
2023/01/15 09:00:40;;;;;;;3.95;1.00;;;19.60;55.00;;;;;;5019028;28;20129;-64
2023/01/15 09:03:06;;;;;;;2.72;0.90;;;19.60;55.00;;;;;;5021568;28;20037;-66
2023/01/15 09:05:31;;;;;;;2.75;1.10;;;19.60;55.00;;;;;;5016745;28;20432;-65
2023/01/15 09:07:57;;;;;;;2.78;1.30;;;19.60;55.10;;;;;;5020914;28;20481;-65
2023/01/15 09:10:23;;;;;;;3.28;1.25;;;19.60;55.10;;;;;;5020858;28;20029;-65
2023/01/15 09:12:49;;;;;;;4.03;1.30;;;19.60;55.00;;;;;;5020140;28;20457;-65
2023/01/15 09:15:15;;;;;;;3.47;1.60;;;19.60;55.10;;;;;;5020393;28;20032;-64
2023/01/15 09:17:40;;;;;;;4.53;1.40;;;19.60;55.10;;;;;;5025769;28;20068;-66
2023/01/15 09:20:09;;;;;;;3.67;1.35;;;19.60;55.10;;;;;;5024643;28;20049;-65
2023/01/15 09:22:35;;;;;;;3.77;1.50;;;19.60;55.00;;;;;;5020857;28;20030;-66
2023/01/15 09:25:01;;;;;;;4.22;1.60;;;19.60;55.10;;;;;;5026000;28;20477;-66
2023/01/15 09:27:27;;;;;;;4.60;1.95;;;19.60;55.10;;;;;;5020249;28;20037;-65
2023/01/15 09:29:53;;;;;;;3.47;1.60;;;19.60;55.20;;;;;;5024050;28;20025;-66
2023/01/15 09:32:19;;;;;;;3.63;1.40;;;19.60;55.10;;;;;;5019612;28;20030;-66
2023/01/15 09:34:44;;;;;;;4.50;1.52;;;19.60;55.10;;;;;;5017666;28;20041;-65
2023/01/15 09:37:10;;;;;;;4.78;1.65;;;19.60;55.20;;;;;;5035037;28;20037;-65
2023/01/15 09:39:39;;;;;;;5.22;1.75;;;19.60;55.20;;;;;;5019029;28;20033;-66
2023/01/15 09:42:26;;;;;;;4.13;1.48;;;19.60;55.30;;;;;;5019191;28;20029;-65
2023/01/15 09:44:58;;;;;;;4.20;1.60;;;19.60;55.30;;;;;;5020598;28;20083;-65
2023/01/15 09:47:45;;;;;;;4.15;1.60;;;19.60;55.30;;;;;;5022146;28;20044;-64
2023/01/15 09:50:28;;;;;;;4.10;1.70;;;19.60;55.40;;;;;;5018364;28;20118;-66
2023/01/15 09:53:27;;;;;;;4.40;1.55;;;19.60;55.30;;;;;;5024029;28;20390;-65
2023/01/15 09:55:54;;;;;;;4.13;1.33;;;19.60;55.50;;;;;;5021453;28;20125;-65
2023/01/15 09:58:28;;;;;;;3.97;1.65;;;19.60;55.50;;;;;;5018918;28;20033;-65
2023/01/15 10:00:54;;;;;;;4.25;1.50;;;19.60;55.60;;;;;;5020284;28;20028;-65
2023/01/15 10:03:41;;;;;;;4.30;1.60;;;19.60;55.60;;;;;;5019285;28;20021;-65
2023/01/15 10:06:14;;;;;;;3.47;1.52;;;19.60;55.60;;;;;;5021285;28;20029;-65
2023/01/15 10:08:49;;;;;;;3.55;1.92;;;19.60;55.60;;;;;;5019733;28;20101;-65
2023/01/15 10:11:14;;;;;;;4.22;1.30;;;19.60;55.60;;;;;;5017859;28;20109;-65
2023/01/15 10:14:04;;;;;;;3.55;1.30;;;19.60;55.50;;;;;;5019499;28;20105;-65
2023/01/15 10:16:32;;;;;;;4.30;1.55;;;19.60;55.90;;;;;;5022216;28;20129;-64
2023/01/15 10:19:01;;;;;;;3.65;1.50;;;19.60;56.10;;;;;;5017827;28;20021;-65
2023/01/15 10:21:32;;;;;;;2.95;1.25;;;19.60;56.00;;;;;;5018523;28;20048;-65
2023/01/15 10:24:11;;;;;;;3.20;1.40;;;19.60;56.10;;;;;;5020867;28;20048;-65
2023/01/15 10:26:52;;;;;;;3.28;1.42;;;19.60;56.30;;;;;;5025981;28;20034;-65
2023/01/15 10:29:40;;;;;;;5.07;1.60;;;19.60;56.30;;;;;;5019268;28;20147;-65
2023/01/15 10:32:12;;;;;;;3.03;1.40;;;19.60;56.20;;;;;;5019701;28;20025;-65
2023/01/15 10:35:07;;;;;;;4.20;1.52;;;19.60;56.80;;;;;;5017732;28;20281;-65
2023/01/15 10:37:40;;;;;;;3.80;1.27;;;19.60;56.90;;;;;;5016016;28;20034;-65
2023/01/15 10:40:24;;;;;;;2.90;1.40;;;19.60;56.90;;;;;;5022055;28;20113;-65
2023/01/15 10:43:01;;;;;;;3.42;1.40;;;19.60;57.30;;;;;;5018327;28;20397;-66
2023/01/15 10:45:32;;;;;;;3.17;1.13;;;19.60;57.30;;;;;;5015362;28;20030;-65
2023/01/15 10:48:35;;;;;;;2.97;1.33;;;19.60;57.30;;;;;;5013372;28;20053;-65
2023/01/15 10:51:11;;;;;;;4.88;1.40;;;19.60;57.40;;;;;;5001598;28;20061;-65
2023/01/15 10:53:47;;;;;;;4.20;1.50;;;19.60;57.50;;;;;;5016069;28;20398;-64
2023/01/15 10:56:24;;;;;;;3.75;1.33;;;19.60;57.60;;;;;;5020430;28;20029;-65
2023/01/15 10:59:21;;;;;;;3.35;1.30;;;19.60;57.70;;;;;;5020398;28;20014;-65
2023/01/15 11:01:50;;;;;;;4.13;1.52;;;19.60;58.10;;;;;;5017347;28;20160;-68
2023/01/15 11:04:16;;;;;;;4.80;1.30;;;19.60;58.40;;;;;;5018730;28;20081;-68
2023/01/15 11:06:41;;;;;;;4.10;1.42;;;19.70;58.50;;;;;;5020425;28;20104;-67
2023/01/15 11:09:21;;;;;;;3.53;1.40;;;19.80;58.40;;;;;;5017390;28;20560;-67
2023/01/15 11:20:00;;;;;;;3.83;1.25;;;20.20;58.40;;;;;;5016332;28;20436;-68
2023/01/15 11:22:28;;;;;;;3.22;1.20;;;20.20;58.10;;;;;;5027642;28;20457;-67
2023/01/15 11:24:57;;;;;;;2.45;1.10;;;20.30;57.80;;;;;;5021001;28;20018;-68
2023/01/15 11:27:26;;;;;;;2.58;1.17;;;20.30;57.70;;;;;;5020975;28;20523;-67
2023/01/15 11:29:55;;;;;;;3.30;1.20;;;20.30;57.70;;;;;;5018433;28;20057;-68
2023/01/15 11:32:23;;;;;;;3.47;1.10;;;20.40;57.70;;;;;;5020081;28;20026;-68
2023/01/15 11:34:57;;;;;;;3.22;1.23;;;20.40;57.60;;;;;;5015969;28;20054;-70
2023/01/15 11:37:24;;;;;;;3.75;1.42;;;20.60;57.90;;;;;;5019932;28;20048;-71
2023/01/15 11:40:03;;;;;;;4.90;1.38;;;20.80;57.70;;;;;;5020705;28;20028;-71
2023/01/15 11:51:19;;;;;;;3.45;1.35;;;21.40;56.60;;;;;;5017873;28;20116;-71
2023/01/15 11:53:50;;;;;;;4.55;1.13;;;21.50;56.30;;;;;;5019466;28;20033;-71
2023/01/15 11:56:19;;;;;;;4.18;1.50;;;21.60;56.20;;;;;;5023570;28;20112;-68
2023/01/15 11:58:53;;;;;;;3.90;1.40;;;21.60;56.00;;;;;;5027926;28;20037;-68
2023/01/15 12:01:33;;;;;;;3.72;1.17;;;21.70;55.60;;;;;;5030549;28;20481;-67
2023/01/15 12:04:06;;;;;;;4.32;1.50;;;21.80;55.60;;;;;;5021042;28;20549;-73
2023/01/15 12:06:35;;;;;;;5.57;1.60;;;21.90;55.40;;;;;;5024593;28;20072;-68
2023/01/15 12:09:13;;;;;;;3.17;1.20;;;22.00;55.10;;;;;;5022180;28;20481;-68
2023/01/15 12:11:44;;;;;;;3.83;1.45;;;22.00;55.00;;;;;;5022314;28;20539;-68
2023/01/15 12:14:43;;;;;;;3.67;1.23;;;22.10;54.80;;;;;;5025236;28;20106;-68
2023/01/15 12:17:33;;;;;;;2.87;1.10;;;22.10;54.80;;;;;;5021231;28;20738;-69
2023/01/15 12:20:13;;;;;;;4.57;1.38;;;22.20;54.70;;;;;;5019776;28;20344;-68
2023/01/15 12:22:50;;;;;;;4.07;1.30;;;22.30;54.60;;;;;;5024309;28;20045;-71
2023/01/15 12:25:41;;;;;;;3.10;1.17;;;22.30;54.50;;;;;;5023582;28;20045;-73
2023/01/15 12:28:26;;;;;;;4.80;1.35;;;22.40;54.20;;;;;;5021280;28;20504;-68
2023/01/15 12:31:09;;;;;;;3.17;1.17;;;22.50;54.10;;;;;;5021564;28;20025;-69
2023/01/15 12:33:42;;;;;;;2.95;1.23;;;22.50;54.00;;;;;;5022385;28;20029;-69
2023/01/15 12:36:20;;;;;;;3.88;1.40;;;22.50;53.80;;;;;;5022602;28;20026;-69
2023/01/15 12:38:48;;;;;;;3.28;1.30;;;22.50;53.80;;;;;;5022563;28;20121;-71
2023/01/15 12:44:59;;;;;;;2.58;1.20;;;22.50;53.80;;;;;;5021719;28;20026;-71
2023/01/15 12:47:13;;;;;;;3.80;1.15;;;22.50;53.60;;;;;;5024737;28;20036;-71
2023/01/15 12:49:45;;;;;;;3.40;1.30;;;22.50;53.60;;;;;;5022421;28;20105;-71
2023/01/15 12:52:19;;;;;;;3.15;1.38;;;22.50;53.50;;;;;;5022617;28;20556;-69
2023/01/15 12:55:09;;;;;;;2.65;1.13;;;22.50;53.60;;;;;;5017684;28;20470;-68
2023/01/15 12:57:39;;;;;;;4.63;1.30;;;22.50;53.50;;;;;;5020782;28;20477;-69
2023/01/15 13:00:31;;;;;;;2.78;1.10;;;22.50;53.50;;;;;;5019590;28;20394;-69
2023/01/15 13:03:34;;;;;;;2.85;1.20;;;22.50;53.50;;;;;;5021956;28;20036;-69
2023/01/15 13:06:04;;;;;;;3.35;1.23;;;22.50;53.40;;;;;;5017448;28;20099;-69
2023/01/15 13:08:54;;;;;;;;;;;22.50;53.40;;;;;;5028349;28;20030;-67
2023/01/15 13:11:19;;;;;;;2.63;1.20;;;22.50;53.40;;;;;;5022726;28;19913;-67
2023/01/15 13:13:56;;;;;;;2.38;0.90;;;22.50;53.40;;;;;;5020509;28;20033;-68
2023/01/15 13:16:34;;;;;;;3.60;1.38;;;22.50;53.40;;;;;;5028884;28;20029;-67
2023/01/15 13:19:31;;;;;;;3.42;1.33;;;22.40;53.40;;;;;;5018268;28;20076;-67
2023/01/15 13:22:02;;;;;;;4.57;1.30;;;22.40;53.40;;;;;;5022132;28;20025;-68
2023/01/15 13:24:41;;;;;;;4.78;1.40;;;22.40;53.50;;;;;;5018287;28;20064;-68
2023/01/15 13:27:20;;;;;;;4.05;1.10;;;22.30;53.50;;;;;;5018070;28;20146;-68
2023/01/15 13:30:04;;;;;;;3.47;1.35;;;22.30;53.60;;;;;;5019084;28;20042;-67
2023/01/15 13:32:38;;;;;;;3.42;1.50;;;22.30;53.60;;;;;;5019491;28;20030;-68
2023/01/15 13:35:25;;;;;;;3.17;1.38;;;22.30;53.70;;;;;;5037960;28;20034;-68
2023/01/15 13:37:53;;;;;;;5.07;1.70;;;22.20;53.60;;;;;;5021341;28;20034;-68
2023/01/15 13:40:43;;;;;;;2.50;1.23;;;22.20;53.70;;;;;;5019805;28;20026;-68
2023/01/15 13:43:39;;;;;;;3.58;1.10;;;22.20;53.80;;;;;;5018910;28;20714;-68
2023/01/15 13:46:11;;;;;;;5.18;1.42;;;22.20;53.80;;;;;;5021545;28;20103;-68
2023/01/15 13:48:45;;;;;;;4.18;1.35;;;22.20;53.80;;;;;;5023634;28;20029;-68
2023/01/15 13:51:41;;;;;;;4.22;1.33;;;22.10;54.30;;;;;;5022487;28;20025;-68
2023/01/15 13:54:15;;;;;;;3.67;1.20;;;22.10;53.90;;;;;;5013828;28;20049;-68
2023/01/15 13:56:40;;;;;;;3.67;1.30;;;22.10;53.90;;;;;;5016768;28;20033;-68
2023/01/15 13:59:43;;;;;;;4.38;1.38;;;22.10;54.00;;;;;;5019572;28;20509;-68
2023/01/15 14:02:28;;;;;;;4.20;1.40;;;22.00;53.90;;;;;;5018315;28;20037;-68